createdAt,value
2018-10-09T00:00:50.906Z,100165.84
2018-10-09T00:03:18.986Z,100163.63
2018-10-09T00:05:47.302Z,100164.97
2018-10-09T00:08:15.581Z,100165.92
2018-10-09T00:10:44.070Z,100172.45
2018-10-09T00:13:12.578Z,100170.55
2018-10-09T00:15:41.019Z,100170.75
2018-10-09T00:18:09.315Z,100166.19
2018-10-09T00:20:37.824Z,100164.62
2018-10-09T00:23:06.338Z,100163.92
2018-10-09T00:25:34.753Z,100166.69
2018-10-09T00:28:03.250Z,100168.05
2018-10-09T00:30:31.492Z,100163.34
2018-10-09T00:32:59.978Z,100173.58
2018-10-09T00:35:28.302Z,100167.84
2018-10-09T00:37:56.444Z,100163.49
2018-10-09T00:40:24.846Z,100164.07
2018-10-09T00:42:53.151Z,100170.39
2018-10-09T00:45:21.615Z,100165.05
2018-10-09T00:47:50.179Z,100167.41
2018-10-09T00:50:18.337Z,100169.61
2018-10-09T00:52:46.774Z,100172.45
2018-10-09T00:55:14.923Z,100166.41
2018-10-09T00:57:43.430Z,100167.20
2018-10-09T01:00:11.559Z,100161.55
2018-10-09T01:02:39.907Z,100155.50
2018-10-09T01:05:08.124Z,100160.91
2018-10-09T01:07:36.466Z,100163.34
2018-10-09T01:10:04.787Z,100164.14
2018-10-09T01:12:33.209Z,100172.11
2018-10-09T01:15:01.491Z,100173.77
2018-10-09T01:17:29.766Z,100180.62
2018-10-09T01:19:58.102Z,100183.66
2018-10-09T01:22:26.287Z,100180.95
2018-10-09T01:24:54.361Z,100184.47
2018-10-09T01:27:22.503Z,100181.21
2018-10-09T01:29:50.750Z,100186.56
2018-10-09T01:32:18.886Z,100182.66
2018-10-09T01:34:47.039Z,100185.48
2018-10-09T01:37:15.259Z,100181.41
2018-10-09T01:39:43.319Z,100179.61
2018-10-09T01:42:11.647Z,100182.31
2018-10-09T01:44:39.884Z,100182.00
2018-10-09T01:47:08.292Z,100182.31
2018-10-09T01:49:36.654Z,100174.82
2018-10-09T01:52:04.894Z,100179.27
2018-10-09T01:54:33.158Z,100185.45
2018-10-09T01:57:01.298Z,100188.17
2018-10-09T01:59:29.535Z,100186.17
2018-10-09T02:01:57.836Z,100182.56
2018-10-09T02:04:25.934Z,100190.51
2018-10-09T02:06:54.030Z,100187.26
2018-10-09T02:09:22.402Z,100187.95
2018-10-09T02:11:50.574Z,100184.02
2018-10-09T02:14:18.778Z,100193.25
2018-10-09T02:16:47.315Z,100196.30
2018-10-09T02:19:15.542Z,100198.20
2018-10-09T02:21:44.059Z,100195.31
2018-10-09T02:24:12.080Z,100202.20
2018-10-09T02:26:40.424Z,100205.30
2018-10-09T02:29:08.628Z,100191.81
2018-10-09T02:31:37.123Z,100197.25
2018-10-09T02:34:05.395Z,100205.73
2018-10-09T02:36:33.890Z,100202.52
2018-10-09T02:39:02.264Z,100197.88
2018-10-09T02:41:30.694Z,100200.41
2018-10-09T02:43:58.906Z,100203.69
2018-10-09T02:46:27.184Z,100192.48
2018-10-09T02:48:55.358Z,100198.34
2018-10-09T02:51:23.670Z,100198.45
2018-10-09T02:53:52.126Z,100199.30
2018-10-09T02:56:20.399Z,100196.75
2018-10-09T02:58:48.683Z,100197.37
2018-10-09T03:01:17.157Z,100200.30
2018-10-09T03:03:45.460Z,100203.61
2018-10-09T03:06:13.903Z,100195.13
2018-10-09T03:08:42.076Z,100203.92
2018-10-09T03:11:10.491Z,100208.08
2018-10-09T03:13:38.775Z,100203.23
2018-10-09T03:16:07.298Z,100205.31
2018-10-09T03:18:35.587Z,100210.78
2018-10-09T03:21:03.622Z,100209.85
2018-10-09T03:23:31.868Z,100209.42
2018-10-09T03:26:00.124Z,100217.63
2018-10-09T03:28:28.591Z,100210.73
2018-10-09T03:30:57.059Z,100211.11
2018-10-09T03:33:32.092Z,100211.30
2018-10-09T03:36:00.338Z,100214.50
2018-10-09T03:38:28.470Z,100212.27
2018-10-09T03:40:56.972Z,100218.17
2018-10-09T03:43:25.149Z,100218.63
2018-10-09T03:45:53.507Z,100219.13
2018-10-09T03:48:21.651Z,100220.52
2018-10-09T03:50:50.041Z,100222.05
2018-10-09T03:53:18.302Z,100221.73
2018-10-09T03:55:46.427Z,100227.95
2018-10-09T03:58:14.618Z,100221.36
2018-10-09T04:00:42.763Z,100229.64
2018-10-09T04:03:11.258Z,100231.08
2018-10-09T04:05:39.495Z,100227.34
2018-10-09T04:08:07.962Z,100234.47
2018-10-09T04:10:36.267Z,100239.58
2018-10-09T04:13:04.767Z,100236.50
2018-10-09T04:15:33.004Z,100241.20
2018-10-09T04:18:01.679Z,100245.38
2018-10-09T04:20:29.746Z,100243.34
2018-10-09T04:22:57.851Z,100247.44
2018-10-09T04:25:26.111Z,100245.19
2018-10-09T04:27:54.350Z,100236.59
2018-10-09T04:30:22.491Z,100248.09
2018-10-09T04:32:50.759Z,100247.01
2018-10-09T04:35:18.838Z,100250.83
2018-10-09T04:37:47.246Z,100260.02
2018-10-09T04:40:15.423Z,100258.41
2018-10-09T04:42:43.663Z,100261.96
2018-10-09T04:45:12.148Z,100253.89
2018-10-09T04:47:40.302Z,100264.90
2018-10-09T04:50:08.691Z,100265.97
2018-10-09T04:52:37.044Z,100272.53
2018-10-09T04:55:04.863Z,100269.16
2018-10-09T04:57:32.567Z,100277.73
2018-10-09T05:00:00.362Z,100280.28
2018-10-09T05:02:28.544Z,100284.03
2018-10-09T05:04:56.845Z,100279.62
2018-10-09T05:07:24.967Z,100268.31
2018-10-09T05:09:53.342Z,100264.91
2018-10-09T05:12:21.512Z,100273.95
2018-10-09T05:14:50.004Z,100265.78
2018-10-09T05:17:18.271Z,100270.50
2018-10-09T05:19:46.746Z,100263.25
2018-10-09T05:22:15.007Z,100267.97
2018-10-09T05:24:42.804Z,100264.74
2018-10-09T05:27:10.510Z,100272.98
2018-10-09T05:29:38.195Z,100278.14
2018-10-09T05:32:06.373Z,100277.75
2018-10-09T05:34:34.546Z,100285.23
2018-10-09T05:37:02.947Z,100276.14
2018-10-09T05:39:31.142Z,100282.52
2018-10-09T05:41:59.381Z,100287.47
2018-10-09T05:44:27.872Z,100290.11
2018-10-09T05:46:56.244Z,100292.75
2018-10-09T05:49:24.243Z,100292.69
2018-10-09T05:51:52.493Z,100295.47
2018-10-09T05:54:20.754Z,100298.56
2018-10-09T05:56:51.332Z,100307.44
2018-10-09T05:59:19.599Z,100318.69
2018-10-09T06:01:47.746Z,100319.88
2018-10-09T06:04:16.082Z,100322.84
2018-10-09T06:06:43.843Z,100323.70
2018-10-09T06:09:11.735Z,100331.61
2018-10-09T06:11:39.559Z,100332.39
2018-10-09T06:14:08.067Z,100335.83
2018-10-09T06:16:36.579Z,100328.95
2018-10-09T06:19:04.555Z,100332.64
2018-10-09T06:21:33.028Z,100336.08
2018-10-09T06:24:01.346Z,100338.56
2018-10-09T06:26:29.780Z,100339.16
2018-10-09T06:28:58.060Z,100340.62
2018-10-09T06:31:26.592Z,100340.05
2018-10-09T06:33:54.820Z,100341.75
2018-10-09T06:36:23.032Z,100347.77
2018-10-09T06:38:51.191Z,100344.52
2018-10-09T06:41:19.442Z,100344.63
2018-10-09T06:43:48.023Z,100344.70
2018-10-09T06:46:16.830Z,100355.57
2018-10-09T06:48:45.697Z,100358.55
2018-10-09T06:51:13.983Z,100347.98
2018-10-09T06:53:42.589Z,100351.66
2018-10-09T06:56:11.519Z,100359.95
2018-10-09T06:58:39.646Z,100357.24
2018-10-09T07:01:08.000Z,100360.05
2018-10-09T07:03:36.166Z,100361.68
2018-10-09T07:06:04.488Z,100360.37
2018-10-09T07:08:33.846Z,100362.80
2018-10-09T07:11:02.176Z,100358.53
2018-10-09T07:13:30.479Z,100356.64
2018-10-09T07:15:58.864Z,100356.72
2018-10-09T07:18:26.573Z,100357.44
2018-10-09T07:20:54.743Z,100358.89
2018-10-09T07:23:22.552Z,100355.97
2018-10-09T07:25:50.303Z,100348.37
2018-10-09T07:28:18.042Z,100355.72
2018-10-09T07:30:45.845Z,100358.92
2018-10-09T07:33:13.628Z,100351.61
2018-10-09T07:35:41.351Z,100355.19
2018-10-09T07:38:09.059Z,100344.53
2018-10-09T07:40:36.775Z,100349.39
2018-10-09T07:43:04.493Z,100354.42
2018-10-09T07:45:32.198Z,100355.51
2018-10-09T07:47:59.917Z,100356.98
2018-10-09T07:50:27.607Z,100353.08
2018-10-09T07:52:55.356Z,100349.88
2018-10-09T07:55:23.011Z,100352.61
2018-10-09T07:57:50.697Z,100355.57
2018-10-09T08:00:18.420Z,100363.97
2018-10-09T08:02:46.586Z,100355.72
2018-10-09T08:05:14.651Z,100356.94
2018-10-09T08:07:42.542Z,100358.89
2018-10-09T08:10:10.782Z,100364.98
2018-10-09T08:12:38.873Z,100364.33
2018-10-09T08:15:07.003Z,100367.37
2018-10-09T08:17:35.362Z,100374.69
2018-10-09T08:20:03.254Z,100377.34
2018-10-09T08:22:31.416Z,100372.47
2018-10-09T08:24:59.618Z,100365.00
2018-10-09T08:27:27.478Z,100369.50
2018-10-09T08:29:55.222Z,100367.65
2018-10-09T08:32:22.949Z,100364.65
2018-10-09T08:34:50.622Z,100364.75
2018-10-09T08:37:18.315Z,100359.45
2018-10-09T08:39:45.999Z,100367.48
2018-10-09T08:42:13.699Z,100362.16
2018-10-09T08:44:41.418Z,100363.72
2018-10-09T08:47:09.096Z,100359.83
2018-10-09T08:49:36.810Z,100360.45
2018-10-09T08:52:04.726Z,100351.25
2018-10-09T08:54:32.366Z,100362.31
2018-10-09T08:57:00.055Z,100364.07
2018-10-09T08:59:27.763Z,100354.15
2018-10-09T09:01:55.442Z,100351.79
2018-10-09T09:04:23.104Z,100349.88
2018-10-09T09:06:50.811Z,100350.95
2018-10-09T09:09:18.482Z,100350.67
2018-10-09T09:11:46.154Z,100350.41
2018-10-09T09:14:13.951Z,100357.49
2018-10-09T09:16:41.680Z,100351.56
2018-10-09T09:19:09.348Z,100351.25
2018-10-09T09:21:37.104Z,100353.52
2018-10-09T09:24:04.781Z,100353.13
2018-10-09T09:26:32.524Z,100358.82
2018-10-09T09:29:00.206Z,100362.50
2018-10-09T09:31:28.195Z,100354.47
2018-10-09T09:33:55.926Z,100351.22
2018-10-09T09:36:23.672Z,100349.64
2018-10-09T09:38:51.383Z,100346.20
2018-10-09T09:41:19.163Z,100349.64
2018-10-09T09:43:46.857Z,100348.42
2018-10-09T09:46:14.668Z,100353.09
2018-10-09T09:48:42.335Z,100349.30
2018-10-09T09:51:10.072Z,100340.73
2018-10-09T09:53:37.739Z,100333.89
2018-10-09T09:56:05.447Z,100330.07
2018-10-09T09:58:33.341Z,100329.11
2018-10-09T10:01:07.152Z,100336.32
2018-10-09T10:03:35.002Z,100332.02
2018-10-09T10:06:02.668Z,100326.49
2018-10-09T10:14:31.326Z,100317.42
2018-10-09T10:16:59.028Z,100310.60
2018-10-09T10:19:26.747Z,100315.44
2018-10-09T10:21:54.491Z,100310.39
2018-10-09T10:24:22.306Z,100304.84
2018-10-09T10:26:50.081Z,100307.48
2018-10-09T10:29:17.813Z,100306.71
2018-10-09T10:31:45.491Z,100295.41
2018-10-09T10:34:13.237Z,100293.46
2018-10-09T10:36:40.980Z,100296.22
2018-10-09T10:39:10.325Z,100287.27
2018-10-09T10:41:38.022Z,100278.65
2018-10-09T10:44:05.827Z,100289.30
2018-10-09T10:46:41.495Z,100287.41
2018-10-09T10:49:10.488Z,100274.92
2018-10-09T10:51:38.349Z,100288.14
2018-10-09T10:54:06.203Z,100281.31
2018-10-09T10:56:34.332Z,100272.93
2018-10-09T10:59:02.064Z,100273.31
2018-10-09T11:01:29.799Z,100275.97
2018-10-09T11:03:57.723Z,100268.06
2018-10-09T11:06:25.758Z,100263.83
2018-10-09T11:08:53.532Z,100260.56
2018-10-09T11:11:21.282Z,100265.70
2018-10-09T11:13:49.063Z,100268.06
2018-10-09T11:16:17.223Z,100261.34
2018-10-09T11:18:45.040Z,100266.34
2018-10-09T11:21:12.793Z,100266.88
2018-10-09T11:23:40.516Z,100258.06
2018-10-09T11:26:08.379Z,100255.20
2018-10-09T11:28:36.083Z,100253.00
2018-10-09T11:31:03.827Z,100250.69
2018-10-09T11:33:31.627Z,100245.62
2018-10-09T11:35:59.551Z,100248.98
2018-10-09T11:38:27.305Z,100256.16
2018-10-09T11:40:55.059Z,100245.14
2018-10-09T11:43:22.882Z,100250.92
2018-10-09T11:45:50.571Z,100240.14
2018-10-09T11:48:18.366Z,100229.35
2018-10-09T11:50:46.171Z,100234.23
2018-10-09T11:53:13.983Z,100236.02
2018-10-09T11:55:41.755Z,100230.73
2018-10-09T11:58:09.519Z,100236.69
2018-10-09T12:00:39.148Z,100236.83
2018-10-09T12:03:07.075Z,100229.67
2018-10-09T12:05:34.922Z,100230.44
2018-10-09T12:08:02.972Z,100227.20
2018-10-09T12:10:30.935Z,100226.29
2018-10-09T12:12:58.703Z,100222.33
2018-10-09T12:15:26.468Z,100218.28
2018-10-09T12:17:54.255Z,100212.67
2018-10-09T12:20:21.966Z,100216.15
2018-10-09T12:22:49.812Z,100215.09
2018-10-09T12:25:17.587Z,100217.31
2018-10-09T12:27:45.388Z,100208.34
2018-10-09T12:30:13.168Z,100205.98
2018-10-09T12:32:41.054Z,100195.38
2018-10-09T12:35:08.814Z,100199.02
2018-10-09T12:37:36.555Z,100210.47
2018-10-09T12:40:04.367Z,100210.30
2018-10-09T12:42:32.151Z,100210.84
2018-10-09T12:44:59.876Z,100213.95
2018-10-09T12:47:27.667Z,100206.77
2018-10-09T12:49:55.404Z,100218.83
2018-10-09T12:52:23.270Z,100214.75
2018-10-09T12:54:51.075Z,100208.66
2018-10-09T12:57:18.814Z,100205.39
2018-10-09T12:59:46.564Z,100209.20
2018-10-09T13:02:14.370Z,100210.34
2018-10-09T13:04:42.091Z,100212.56
2018-10-09T13:07:09.912Z,100216.58
2018-10-09T13:09:37.832Z,100210.34
2018-10-09T13:12:05.557Z,100200.36
2018-10-09T13:14:33.360Z,100201.49
2018-10-09T13:17:01.184Z,100210.09
2018-10-09T13:19:28.895Z,100208.41
2018-10-09T13:21:56.848Z,100205.10
2018-10-09T13:24:24.450Z,100195.42
2018-10-09T13:26:52.255Z,100209.95
2018-10-09T13:29:19.945Z,100206.91
2018-10-09T13:31:49.024Z,100199.80
2018-10-09T13:34:16.924Z,100209.43
2018-10-09T13:36:44.818Z,100204.54
2018-10-09T13:39:12.588Z,100203.44
2018-10-09T13:41:40.290Z,100203.37
2018-10-09T13:44:08.190Z,100208.61
2018-10-09T13:46:37.723Z,100208.06
2018-10-09T13:49:06.064Z,100192.97
2018-10-09T13:51:33.847Z,100195.66
2018-10-09T13:54:01.678Z,100200.20
2018-10-09T13:56:29.540Z,100186.56
2018-10-09T13:58:57.339Z,100198.36
2018-10-09T14:01:25.200Z,100191.52
2018-10-09T14:03:52.907Z,100198.33
2018-10-09T14:06:20.869Z,100197.01
2018-10-09T14:08:48.979Z,100197.50
2018-10-09T14:11:16.738Z,100197.63
2018-10-09T14:13:44.484Z,100198.88
2018-10-09T14:16:12.407Z,100199.30
2018-10-09T14:18:40.175Z,100201.36
2018-10-09T14:21:08.403Z,100201.25
2018-10-09T14:23:36.956Z,100203.13
2018-10-09T14:26:05.176Z,100202.08
2018-10-09T14:28:33.612Z,100209.84
2018-10-09T14:31:02.155Z,100210.72
2018-10-09T14:33:30.579Z,100211.62
2018-10-09T14:35:58.871Z,100209.59
2018-10-09T14:38:27.192Z,100209.64
2018-10-09T14:40:55.612Z,100207.00
2018-10-09T14:43:23.916Z,100211.00
2018-10-09T14:45:52.439Z,100212.20
2018-10-09T14:48:20.819Z,100219.68
2018-10-09T14:50:49.079Z,100215.34
2018-10-09T14:53:17.006Z,100221.02
2018-10-09T14:55:45.508Z,100222.27
2018-10-09T14:58:13.501Z,100220.15
2018-10-09T15:00:41.632Z,100221.71
2018-10-09T15:03:10.128Z,100217.22
2018-10-09T15:05:38.175Z,100221.53
2018-10-09T15:08:06.689Z,100217.22
2018-10-09T15:10:35.130Z,100222.05
2018-10-09T15:13:03.422Z,100222.55
2018-10-09T15:15:31.261Z,100221.62
2018-10-09T15:17:58.958Z,100222.32
2018-10-09T15:20:26.674Z,100225.52
2018-10-09T15:22:54.510Z,100228.88
2018-10-09T15:25:22.364Z,100231.13
2018-10-09T15:27:50.115Z,100229.33
2018-10-09T15:30:17.898Z,100233.80
2018-10-09T15:32:45.631Z,100241.70
2018-10-09T15:35:13.980Z,100244.09
2018-10-09T15:37:42.311Z,100250.94
2018-10-09T15:40:10.788Z,100252.00
2018-10-09T15:42:39.044Z,100250.98
2018-10-09T15:45:07.052Z,100258.78
2018-10-09T15:47:34.763Z,100255.55
2018-10-09T15:50:02.577Z,100251.81
2018-10-09T15:52:30.365Z,100252.16
2018-10-09T15:54:58.187Z,100256.50
2018-10-09T15:57:25.883Z,100255.77
2018-10-09T15:59:53.639Z,100254.13
2018-10-09T16:02:21.561Z,100267.59
2018-10-09T16:04:49.290Z,100260.59
2018-10-09T16:07:17.087Z,100266.45
2018-10-09T16:09:44.826Z,100270.48
2018-10-09T16:12:12.515Z,100271.84
2018-10-09T16:14:40.344Z,100278.73
2018-10-09T16:17:08.153Z,100268.89
2018-10-09T16:19:35.931Z,100278.02
2018-10-09T16:22:03.823Z,100282.64
2018-10-09T16:24:31.590Z,100275.25
2018-10-09T16:26:59.372Z,100283.28
2018-10-09T16:29:27.147Z,100293.34
2018-10-09T16:31:54.882Z,100287.66
2018-10-09T16:34:22.648Z,100293.72
2018-10-09T16:36:50.441Z,100291.13
2018-10-09T16:39:18.248Z,100291.98
2018-10-09T16:41:46.068Z,100291.23
2018-10-09T16:44:13.911Z,100294.33
2018-10-09T16:46:42.109Z,100295.53
2018-10-09T16:49:09.903Z,100300.41
2018-10-09T16:51:37.743Z,100300.31
2018-10-09T16:54:05.575Z,100301.77
2018-10-09T16:56:33.319Z,100305.18
2018-10-09T16:59:01.248Z,100299.44
2018-10-09T17:01:29.048Z,100304.02
2018-10-09T17:03:56.788Z,100307.80
2018-10-09T17:06:24.665Z,100309.29
2018-10-09T17:08:52.419Z,100317.47
2018-10-09T17:11:20.157Z,100311.75
2018-10-09T17:13:47.975Z,100318.07
2018-10-09T17:16:17.207Z,100319.63
2018-10-09T17:18:44.968Z,100317.30
2018-10-09T17:21:12.755Z,100320.22
2018-10-09T17:23:40.535Z,100320.02
2018-10-09T17:26:08.463Z,100321.81
2018-10-09T17:28:36.506Z,100322.23
2018-10-09T17:31:04.247Z,100319.63
2018-10-09T17:33:32.057Z,100325.30
2018-10-09T17:35:59.811Z,100322.77
2018-10-09T17:38:27.583Z,100329.17
2018-10-09T17:40:55.271Z,100329.17
2018-10-09T17:43:23.054Z,100336.60
2018-10-09T17:45:50.815Z,100338.31
2018-10-09T17:48:21.096Z,100349.52
2018-10-09T17:50:48.937Z,100344.08
2018-10-09T17:53:16.713Z,100347.38
2018-10-09T17:55:44.491Z,100351.11
2018-10-09T17:58:12.332Z,100352.59
2018-10-09T18:00:40.144Z,100348.63
2018-10-09T18:03:07.888Z,100342.23
2018-10-09T18:05:35.700Z,100349.48
2018-10-09T18:08:04.804Z,100350.84
2018-10-09T18:10:34.003Z,100349.29
2018-10-09T18:13:02.708Z,100355.80
2018-10-09T18:15:30.496Z,100359.95
2018-10-09T18:17:58.259Z,100363.89
2018-10-09T18:20:28.347Z,100360.14
2018-10-09T18:22:56.079Z,100355.55
2018-10-09T18:25:23.831Z,100357.80
2018-10-09T18:27:51.612Z,100355.83
2018-10-09T18:30:19.423Z,100360.05
2018-10-09T18:32:47.337Z,100361.41
2018-10-09T18:35:15.056Z,100362.14
2018-10-09T18:37:42.815Z,100366.67
2018-10-09T18:40:10.643Z,100363.29
2018-10-09T18:42:38.850Z,100365.09
2018-10-09T18:45:06.849Z,100365.83
2018-10-09T18:47:40.000Z,100370.32
2018-10-09T18:50:07.791Z,100372.11
2018-10-09T18:52:37.798Z,100368.73
2018-10-09T18:55:06.090Z,100368.66
2018-10-09T18:57:33.943Z,100369.58
2018-10-09T19:00:01.743Z,100369.80
2018-10-09T19:02:29.506Z,100374.21
2018-10-09T19:04:57.276Z,100369.91
2018-10-09T19:07:25.515Z,100373.26
2018-10-09T19:09:53.764Z,100372.30
2018-10-09T19:12:21.792Z,100369.29
2018-10-09T19:14:49.922Z,100372.41
2018-10-09T19:17:18.267Z,100369.58
2018-10-09T19:19:46.295Z,100369.50
2018-10-09T19:22:14.008Z,100378.06
2018-10-09T19:24:43.628Z,100376.59
2018-10-09T19:27:11.787Z,100374.20
2018-10-09T19:29:40.324Z,100379.02
2018-10-09T19:32:08.584Z,100383.80
2018-10-09T19:34:36.863Z,100385.38
2018-10-09T19:37:05.084Z,100385.16
2018-10-09T19:39:33.642Z,100390.30
2018-10-09T19:42:02.047Z,100392.28
2018-10-09T19:44:29.956Z,100396.67
2018-10-09T19:46:58.402Z,100392.66
2018-10-09T19:49:26.499Z,100396.19
2018-10-09T19:51:54.803Z,100400.55
2018-10-09T19:54:23.015Z,100399.59
2018-10-09T19:56:52.425Z,100404.26
2018-10-09T19:59:20.707Z,100405.80
2018-10-09T20:01:49.351Z,100408.58
2018-10-09T20:04:17.915Z,100417.66
2018-10-09T20:06:46.390Z,100416.70
2018-10-09T20:09:14.893Z,100424.35
2018-10-09T20:11:43.070Z,100417.05
2018-10-09T20:14:12.915Z,100415.40
2018-10-09T20:16:41.201Z,100421.22
2018-10-09T20:19:09.822Z,100414.52
2018-10-09T20:21:37.573Z,100422.63
2018-10-09T20:24:05.587Z,100421.28
2018-10-09T20:26:33.627Z,100422.94
2018-10-09T20:29:01.821Z,100428.86
2018-10-09T20:31:30.263Z,100425.17
2018-10-09T20:33:58.446Z,100417.20
2018-10-09T20:36:26.723Z,100421.02
2018-10-09T20:38:54.599Z,100427.03
2018-10-09T20:41:22.757Z,100424.81
2018-10-09T20:43:50.975Z,100431.97
2018-10-09T20:46:19.211Z,100430.46
2018-10-09T20:48:47.717Z,100433.51
2018-10-09T20:51:15.904Z,100440.41
2018-10-09T20:53:44.186Z,100441.42
2018-10-09T20:56:12.411Z,100449.25
2018-10-09T20:58:40.500Z,100445.79
2018-10-09T21:01:08.771Z,100446.98
2018-10-09T21:03:37.272Z,100455.72
2018-10-09T21:06:05.774Z,100453.84
2018-10-09T21:08:34.044Z,100470.17
2018-10-09T21:11:02.500Z,100459.77
2018-10-09T21:13:30.579Z,100466.67
2018-10-09T21:15:58.899Z,100463.95
2018-10-09T21:18:27.091Z,100467.05
2018-10-09T21:20:54.987Z,100466.14
2018-10-09T21:23:23.331Z,100464.55
2018-10-09T21:25:51.715Z,100461.56
2018-10-09T21:28:19.610Z,100462.61
2018-10-09T21:30:47.566Z,100474.47
2018-10-09T21:33:15.563Z,100474.87
2018-10-09T21:35:43.828Z,100478.09
2018-10-09T21:38:12.123Z,100478.53
2018-10-09T21:40:40.377Z,100477.90
2018-10-09T21:43:08.831Z,100481.73
2018-10-09T21:45:36.755Z,100479.45
2018-10-09T21:48:05.202Z,100480.52
2018-10-09T21:50:33.282Z,100478.90
2018-10-09T21:53:01.436Z,100480.72
2018-10-09T21:55:29.778Z,100481.58
2018-10-09T21:57:58.343Z,100478.23
2018-10-09T22:00:26.720Z,100478.67
2018-10-09T22:02:55.043Z,100479.17
2018-10-09T22:05:23.151Z,100472.81
2018-10-09T22:07:51.659Z,100477.62
2018-10-09T22:10:19.683Z,100483.65
2018-10-09T22:12:47.971Z,100485.17
2018-10-09T22:15:16.075Z,100482.88
2018-10-09T22:17:44.109Z,100476.91
2018-10-09T22:20:12.487Z,100472.27
2018-10-09T22:22:40.462Z,100469.69
2018-10-09T22:25:08.733Z,100462.03
2018-10-09T22:27:37.008Z,100456.42
2018-10-09T22:30:05.627Z,100455.40
2018-10-09T22:32:33.739Z,100456.80
2018-10-09T22:35:01.915Z,100453.73
2018-10-09T22:37:29.963Z,100457.45
2018-10-09T22:39:58.147Z,100458.76
2018-10-09T22:42:26.359Z,100457.77
2018-10-09T22:44:54.159Z,100459.12
2018-10-09T22:47:22.367Z,100457.06
2018-10-09T22:49:50.339Z,100460.92
2018-10-09T22:52:18.558Z,100466.55
2018-10-09T22:54:46.777Z,100466.25
2018-10-09T22:57:14.720Z,100463.94
2018-10-09T22:59:43.150Z,100461.73
2018-10-09T23:02:11.245Z,100461.62
2018-10-09T23:04:39.740Z,100477.74
2018-10-09T23:07:07.927Z,100469.55
2018-10-09T23:09:36.050Z,100472.34
2018-10-09T23:12:04.532Z,100464.59
2018-10-09T23:14:32.839Z,100474.52
2018-10-09T23:17:00.887Z,100479.12
2018-10-09T23:19:29.043Z,100475.55
2018-10-09T23:21:57.298Z,100477.16
2018-10-09T23:24:25.470Z,100473.39
2018-10-09T23:26:53.358Z,100477.28
2018-10-09T23:29:21.890Z,100470.06
2018-10-09T23:31:50.117Z,100469.62
2018-10-09T23:34:18.220Z,100458.63
2018-10-09T23:36:46.732Z,100466.59
2018-10-09T23:39:14.764Z,100464.64
2018-10-09T23:41:43.247Z,100460.70
2018-10-09T23:44:11.548Z,100463.71
2018-10-09T23:46:39.868Z,100469.55
2018-10-09T23:49:08.058Z,100460.19
2018-10-09T23:51:36.416Z,100460.59
2018-10-09T23:54:04.679Z,100463.19
2018-10-09T23:56:32.666Z,100457.64
2018-10-09T23:59:00.585Z,100456.31
